createdAt,value
2022-07-29T00:01:44.528Z,99902.50
2022-07-29T00:04:14.271Z,99892.81
2022-07-29T00:06:43.356Z,99889.53
2022-07-29T00:09:12.036Z,99880.56
2022-07-29T00:11:40.690Z,99890.59
2022-07-29T00:14:11.612Z,99874.69
2022-07-29T00:16:40.209Z,99872.44
2022-07-29T00:19:10.994Z,99881.06
2022-07-29T00:21:39.317Z,99877.59
2022-07-29T00:24:08.081Z,99875.78
2022-07-29T00:26:36.638Z,99880.69
2022-07-29T00:29:32.995Z,99870.91
2022-07-29T00:31:56.579Z,99870.47
2022-07-29T00:34:43.002Z,99860.69
2022-07-29T00:37:11.378Z,99861.53
2022-07-29T00:39:39.690Z,99855.59
2022-07-29T00:42:09.134Z,99853.38
2022-07-29T00:44:40.035Z,99848.47
2022-07-29T00:47:12.043Z,99848.31
2022-07-29T00:49:41.887Z,99843.84
2022-07-29T00:52:12.695Z,99842.63
2022-07-29T00:54:45.328Z,99838.34
2022-07-29T00:57:14.844Z,99844.25
2022-07-29T00:59:43.754Z,99848.47
2022-07-29T01:02:13.458Z,99839.25
2022-07-29T01:04:43.689Z,99841.94
2022-07-29T01:07:13.181Z,99847.88
2022-07-29T01:09:46.816Z,99846.44
2022-07-29T01:12:20.269Z,99842.34
2022-07-29T01:14:51.099Z,99849.47
2022-07-29T01:17:29.068Z,99848.72
2022-07-29T01:20:05.075Z,99852.13
2022-07-29T01:23:35.907Z,99853.72
2022-07-29T01:26:40.666Z,99868.00
2022-07-29T01:29:19.007Z,99858.97
2022-07-29T01:31:59.037Z,99865.19
2022-07-29T01:34:45.194Z,99863.78
2022-07-29T01:37:24.532Z,99862.66
2022-07-29T01:39:57.368Z,99860.88
2022-07-29T01:42:33.793Z,99858.28
2022-07-29T01:45:17.557Z,99843.31
2022-07-29T01:47:55.316Z,99838.06
2022-07-29T01:50:35.367Z,99841.06
2022-07-29T01:53:08.105Z,99842.28
2022-07-29T01:55:41.993Z,99838.41
2022-07-29T01:58:12.906Z,99846.75
2022-07-29T02:00:44.803Z,99846.34
2022-07-29T02:03:15.807Z,99841.69
2022-07-29T02:05:47.118Z,99855.16
2022-07-29T02:08:17.498Z,99843.03
2022-07-29T02:10:50.414Z,99843.72
2022-07-29T02:13:20.825Z,99847.00
2022-07-29T02:15:53.331Z,99853.69
2022-07-29T02:18:25.069Z,99842.72
2022-07-29T02:20:57.166Z,99843.56
2022-07-29T02:23:27.176Z,99838.00
2022-07-29T02:25:58.289Z,99831.28
2022-07-29T02:28:31.541Z,99841.44
2022-07-29T02:31:04.285Z,99848.16
2022-07-29T02:33:33.866Z,99841.69
2022-07-29T02:36:03.806Z,99841.13
2022-07-29T02:38:51.444Z,99838.66
2022-07-29T02:41:25.063Z,99838.28
2022-07-29T02:43:59.303Z,99836.03
2022-07-29T02:46:35.121Z,99840.78
2022-07-29T02:49:17.719Z,99837.13
2022-07-29T02:51:48.833Z,99843.03
2022-07-29T02:54:31.649Z,99838.75
2022-07-29T02:57:03.670Z,99847.31
2022-07-29T02:59:35.298Z,99841.56
2022-07-29T03:02:07.002Z,99854.56
2022-07-29T03:04:37.933Z,99854.00
2022-07-29T03:07:09.584Z,99849.25
2022-07-29T03:09:38.787Z,99856.13
2022-07-29T03:12:08.535Z,99861.66
2022-07-29T03:14:39.055Z,99864.69
2022-07-29T03:17:09.446Z,99866.44
2022-07-29T03:19:38.397Z,99866.81
2022-07-29T03:22:07.052Z,99863.41
2022-07-29T03:24:37.637Z,99859.41
2022-07-29T03:27:07.309Z,99868.00
2022-07-29T03:29:35.881Z,99868.34
2022-07-29T03:32:09.179Z,99864.28
2022-07-29T03:34:39.424Z,99862.19
2022-07-29T03:37:08.654Z,99859.44
2022-07-29T03:39:43.427Z,99859.44
2022-07-29T03:42:16.002Z,99858.63
2022-07-29T03:44:49.649Z,99867.09
2022-07-29T03:47:38.569Z,99858.19
2022-07-29T03:50:16.733Z,99857.81
2022-07-29T03:52:45.576Z,99863.47
2022-07-29T03:55:14.719Z,99872.44
2022-07-29T03:57:44.767Z,99880.34
2022-07-29T04:00:13.943Z,99889.16
2022-07-29T04:02:47.892Z,99884.56
2022-07-29T04:05:17.365Z,99884.81
2022-07-29T04:07:47.171Z,99878.47
2022-07-29T04:10:17.852Z,99883.28
2022-07-29T04:12:57.662Z,99884.16
2022-07-29T04:15:31.175Z,99891.69
2022-07-29T04:18:01.804Z,99896.97
2022-07-29T04:20:30.166Z,99897.13
2022-07-29T04:22:58.500Z,99895.44
2022-07-29T04:25:26.785Z,99897.13
2022-07-29T04:28:04.198Z,99897.00
2022-07-29T04:30:34.566Z,99905.97
2022-07-29T04:33:06.162Z,99902.72
2022-07-29T04:35:45.705Z,99901.94
2022-07-29T04:38:18.951Z,99908.47
2022-07-29T04:40:47.324Z,99913.69
2022-07-29T04:43:22.658Z,99910.78
2022-07-29T04:45:52.005Z,99913.06
2022-07-29T04:48:28.209Z,99910.19
2022-07-29T04:50:57.557Z,99918.59
2022-07-29T04:53:26.469Z,99902.41
2022-07-29T04:55:54.934Z,99895.94
2022-07-29T04:58:24.446Z,99897.78
2022-07-29T05:00:53.136Z,99904.91
2022-07-29T05:03:24.217Z,99900.00
2022-07-29T05:05:53.065Z,99914.78
2022-07-29T05:08:21.566Z,99910.78
2022-07-29T05:10:50.191Z,99918.00
2022-07-29T05:13:18.947Z,99926.56
2022-07-29T05:15:47.354Z,99933.00
2022-07-29T05:18:15.875Z,99938.97
2022-07-29T05:20:47.925Z,99936.03
2022-07-29T05:23:17.989Z,99942.91
2022-07-29T05:25:47.245Z,99956.31
2022-07-29T05:28:16.055Z,99948.59
2022-07-29T05:30:45.302Z,99952.81
2022-07-29T05:33:34.646Z,99948.59
2022-07-29T05:36:03.687Z,99953.63
2022-07-29T05:38:32.423Z,99963.34
2022-07-29T05:41:01.292Z,99972.16
2022-07-29T05:43:29.984Z,99973.97
2022-07-29T05:45:58.690Z,99977.44
2022-07-29T05:48:28.721Z,99981.06
2022-07-29T05:50:57.153Z,99975.50
2022-07-29T05:53:26.803Z,99983.28
2022-07-29T05:55:55.602Z,99978.13
2022-07-29T05:58:24.125Z,99981.97
2022-07-29T06:00:52.365Z,99979.47
2022-07-29T06:03:20.686Z,99984.91
2022-07-29T06:05:49.073Z,99981.00
2022-07-29T06:08:18.140Z,99980.22
2022-07-29T06:10:48.156Z,99979.88
2022-07-29T06:13:16.901Z,99977.69
2022-07-29T06:15:45.470Z,99983.09
2022-07-29T06:18:15.005Z,99980.91
2022-07-29T06:20:43.656Z,99995.03
2022-07-29T06:23:12.099Z,99984.31
2022-07-29T06:25:42.504Z,99982.22
2022-07-29T06:28:12.575Z,99975.88
2022-07-29T06:30:44.900Z,99982.97
2022-07-29T06:33:19.762Z,99978.38
2022-07-29T06:35:53.385Z,99971.09
2022-07-29T06:38:31.649Z,99978.75
2022-07-29T06:41:03.901Z,99985.44
2022-07-29T06:43:52.249Z,99976.03
2022-07-29T06:46:24.384Z,99987.16
2022-07-29T06:48:54.277Z,99985.59
2022-07-29T06:51:24.249Z,99991.25
2022-07-29T06:53:59.869Z,99986.72
2022-07-29T06:56:39.098Z,99990.06
2022-07-29T06:59:11.096Z,99991.97
2022-07-29T07:01:40.526Z,99985.06
2022-07-29T07:04:10.179Z,99993.34
2022-07-29T07:06:39.075Z,100004.78
2022-07-29T07:09:07.826Z,100002.91
2022-07-29T07:11:36.210Z,100012.09
2022-07-29T07:14:05.283Z,99996.03
2022-07-29T07:16:35.732Z,100004.75
2022-07-29T07:19:06.823Z,99999.91
2022-07-29T07:21:36.407Z,99993.22
2022-07-29T07:24:05.565Z,99986.41
2022-07-29T07:26:34.682Z,99982.91
2022-07-29T07:29:02.917Z,99979.03
2022-07-29T07:31:31.605Z,99987.06
2022-07-29T07:34:01.601Z,99989.84
2022-07-29T07:36:30.250Z,99977.16
2022-07-29T07:38:58.806Z,99976.75
2022-07-29T07:41:27.811Z,99982.06
2022-07-29T07:44:03.719Z,99976.25
2022-07-29T07:46:32.638Z,99985.09
2022-07-29T07:49:02.423Z,99970.72
2022-07-29T07:51:31.296Z,99975.81
2022-07-29T07:53:59.763Z,99978.50
2022-07-29T07:56:33.250Z,99978.06
2022-07-29T07:59:03.597Z,99976.41
2022-07-29T08:01:47.844Z,99974.31
2022-07-29T08:04:27.534Z,99975.63
2022-07-29T08:06:58.102Z,99974.56
2022-07-29T08:09:30.157Z,99974.69
2022-07-29T08:12:00.333Z,99979.13
2022-07-29T08:14:28.756Z,99974.91
2022-07-29T08:16:57.356Z,99970.72
2022-07-29T08:19:29.909Z,99968.31
2022-07-29T08:21:59.414Z,99971.56
2022-07-29T08:24:53.380Z,99973.47
2022-07-29T08:27:42.460Z,99973.78
2022-07-29T08:30:12.499Z,99973.88
2022-07-29T08:32:56.469Z,99971.50
2022-07-29T08:35:26.887Z,99982.38
2022-07-29T08:37:56.679Z,99973.72
2022-07-29T08:40:31.936Z,99974.75
2022-07-29T08:43:06.459Z,99973.59
2022-07-29T08:45:48.178Z,99978.22
2022-07-29T08:48:19.475Z,99977.72
2022-07-29T08:50:58.322Z,99979.19
2022-07-29T08:53:30.111Z,99982.78
2022-07-29T08:56:01.518Z,99985.28
2022-07-29T08:58:36.625Z,99975.34
2022-07-29T09:01:07.698Z,99972.41
2022-07-29T09:03:49.312Z,99975.22
2022-07-29T09:06:23.468Z,99974.25
2022-07-29T09:08:52.292Z,99982.75
2022-07-29T09:11:21.376Z,99972.28
2022-07-29T09:13:50.512Z,99979.16
2022-07-29T09:16:37.279Z,99979.38
2022-07-29T09:19:24.141Z,99988.94
2022-07-29T09:22:03.587Z,99988.38
2022-07-29T09:24:44.684Z,99986.47
2022-07-29T09:27:23.053Z,99989.03
2022-07-29T09:30:01.967Z,99987.63
2022-07-29T09:32:31.192Z,99981.03
2022-07-29T09:35:22.681Z,99985.38
2022-07-29T09:37:52.921Z,99987.69
2022-07-29T09:40:24.229Z,99984.47
2022-07-29T09:42:53.803Z,99986.06
2022-07-29T09:45:31.697Z,99996.63
2022-07-29T09:48:04.268Z,99988.75
2022-07-29T09:50:40.852Z,99994.81
2022-07-29T09:53:11.476Z,99997.41
2022-07-29T09:55:51.922Z,99994.00
2022-07-29T09:58:22.241Z,100000.44
2022-07-29T10:00:53.033Z,99998.47
2022-07-29T10:03:22.370Z,99999.16
2022-07-29T10:06:08.638Z,99992.81
2022-07-29T10:08:39.302Z,99999.53
2022-07-29T10:11:15.684Z,99998.97
2022-07-29T10:13:46.866Z,100004.53
2022-07-29T10:16:17.389Z,100010.09
2022-07-29T10:18:47.762Z,100002.41
2022-07-29T10:21:35.569Z,100014.66
2022-07-29T10:24:14.900Z,100011.31
2022-07-29T10:26:45.606Z,100002.09
2022-07-29T10:29:14.124Z,99999.13
2022-07-29T10:31:51.284Z,100005.41
2022-07-29T10:34:28.408Z,100000.34
2022-07-29T10:37:06.598Z,100004.34
2022-07-29T10:39:53.927Z,99995.34
2022-07-29T10:42:29.832Z,99999.41
2022-07-29T10:45:04.384Z,99990.22
2022-07-29T10:47:35.062Z,99991.16
2022-07-29T10:50:07.164Z,100004.69
2022-07-29T10:52:57.497Z,100000.50
2022-07-29T10:55:43.138Z,99997.47
2022-07-29T10:58:17.860Z,100000.13
2022-07-29T11:00:47.906Z,100000.81
2022-07-29T11:03:53.767Z,99998.84
2022-07-29T11:06:30.962Z,100000.78
2022-07-29T11:09:25.926Z,99995.78
2022-07-29T11:12:05.855Z,100003.91
2022-07-29T11:15:01.643Z,100001.00
2022-07-29T11:17:37.568Z,100001.41
2022-07-29T11:20:42.325Z,100002.09
2022-07-29T11:23:24.420Z,100004.94
2022-07-29T11:26:21.175Z,100000.19
2022-07-29T11:29:01.069Z,100000.63
2022-07-29T11:31:40.059Z,100003.91
2022-07-29T11:37:27.910Z,100004.59
2022-07-29T11:40:20.201Z,100008.78
2022-07-29T11:45:50.731Z,100012.34
2022-07-29T11:48:31.800Z,100014.22
2022-07-29T11:51:03.124Z,100018.56
2022-07-29T11:53:32.896Z,100020.94
2022-07-29T11:56:03.651Z,100010.97
2022-07-29T11:58:33.326Z,100005.69
2022-07-29T12:01:04.820Z,100006.63
2022-07-29T12:03:36.156Z,100007.44
2022-07-29T12:06:15.114Z,100010.75
2022-07-29T12:07:01.565Z,100006.41
2022-07-29T12:08:45.220Z,100015.91
2022-07-29T12:11:22.369Z,100001.72
2022-07-29T12:13:52.336Z,99996.63
2022-07-29T12:16:25.437Z,100005.06
2022-07-29T12:18:59.911Z,99998.38
2022-07-29T12:21:29.420Z,99993.41
2022-07-29T12:24:05.686Z,99994.91
2022-07-29T12:26:40.342Z,99995.53
2022-07-29T12:29:15.439Z,99995.31
2022-07-29T12:31:47.262Z,100000.22
2022-07-29T12:34:18.282Z,99991.69
2022-07-29T12:36:46.911Z,100006.16
2022-07-29T12:39:17.013Z,99998.94
2022-07-29T12:41:46.204Z,99993.78
2022-07-29T12:44:14.817Z,99996.78
2022-07-29T12:46:47.468Z,99995.75
2022-07-29T12:49:24.796Z,99994.63
2022-07-29T12:51:53.533Z,99987.81
2022-07-29T12:54:21.928Z,99984.19
2022-07-29T12:57:01.233Z,99983.69
2022-07-29T12:59:29.505Z,99989.22
2022-07-29T13:02:00.950Z,99982.94
2022-07-29T13:04:31.896Z,99975.13
2022-07-29T13:07:06.899Z,99982.56
2022-07-29T13:09:43.945Z,99975.13
2022-07-29T13:12:15.189Z,99978.28
2022-07-29T13:14:46.005Z,99989.34
2022-07-29T13:17:18.137Z,99982.19
2022-07-29T13:19:48.345Z,99981.81
2022-07-29T13:22:19.417Z,99989.78
2022-07-29T13:24:52.972Z,99986.78
2022-07-29T13:27:23.971Z,99980.13
2022-07-29T13:29:54.370Z,99986.44
2022-07-29T13:32:27.690Z,99987.75
2022-07-29T13:34:57.106Z,99995.19
2022-07-29T13:37:25.605Z,99999.81
2022-07-29T13:39:55.010Z,99992.16
2022-07-29T13:42:23.442Z,99990.72
2022-07-29T13:44:54.746Z,99992.50
2022-07-29T13:47:32.381Z,99996.84
2022-07-29T13:50:02.178Z,99992.84
2022-07-29T13:52:31.800Z,99990.72
2022-07-29T13:55:00.346Z,99991.69
2022-07-29T13:57:29.737Z,99984.31
2022-07-29T13:59:59.021Z,99985.47
2022-07-29T14:02:29.084Z,99989.13
2022-07-29T14:04:57.483Z,99988.38
2022-07-29T14:07:26.280Z,99981.72
2022-07-29T14:09:54.999Z,99983.38
2022-07-29T14:12:23.571Z,99983.63
2022-07-29T14:14:53.347Z,99988.88
2022-07-29T14:17:21.979Z,99979.06
2022-07-29T14:19:52.351Z,99983.69
2022-07-29T14:22:23.056Z,99984.09
2022-07-29T14:24:54.505Z,99984.56
2022-07-29T14:27:37.910Z,99985.19
2022-07-29T14:30:09.419Z,99978.03
2022-07-29T14:32:37.926Z,99977.69
2022-07-29T14:35:09.349Z,99985.28
2022-07-29T14:37:40.435Z,99984.38
2022-07-29T14:40:12.709Z,99984.25
2022-07-29T14:42:42.201Z,99976.47
2022-07-29T14:45:12.721Z,99986.84
2022-07-29T14:47:42.108Z,99992.28
2022-07-29T14:50:13.123Z,99992.50
2022-07-29T14:52:41.837Z,99996.22
2022-07-29T14:55:16.382Z,99997.31
2022-07-29T14:57:49.437Z,99995.88
2022-07-29T15:00:18.471Z,99981.63
2022-07-29T15:03:01.398Z,99991.88
2022-07-29T15:05:32.384Z,99986.97
2022-07-29T15:08:01.226Z,99987.16
2022-07-29T15:10:30.004Z,99989.13
2022-07-29T15:12:58.676Z,99985.34
2022-07-29T15:15:27.674Z,99987.53
2022-07-29T15:17:56.695Z,99987.00
2022-07-29T15:20:26.156Z,99988.72
2022-07-29T15:22:56.984Z,99983.03
2022-07-29T15:25:25.732Z,99984.28
2022-07-29T15:28:01.093Z,99980.81
2022-07-29T15:30:33.467Z,99982.47
2022-07-29T15:33:04.905Z,99978.19
2022-07-29T15:35:40.217Z,99974.00
2022-07-29T15:38:10.821Z,99989.19
2022-07-29T15:40:42.094Z,99991.06
2022-07-29T15:43:10.500Z,99986.44
2022-07-29T15:45:40.379Z,99987.09
2022-07-29T15:48:14.656Z,99981.19
2022-07-29T15:50:47.103Z,99991.78
2022-07-29T15:53:16.771Z,99985.47
2022-07-29T15:55:46.232Z,99984.50
2022-07-29T15:58:14.720Z,99995.50
2022-07-29T16:00:43.085Z,99984.81
2022-07-29T16:03:12.705Z,99989.84
2022-07-29T16:05:43.525Z,99985.59
2022-07-29T16:08:12.093Z,99989.34
2022-07-29T16:10:41.832Z,99992.91
2022-07-29T16:13:10.361Z,99988.97
2022-07-29T16:16:02.112Z,99984.97
2022-07-29T16:18:30.926Z,99983.66
2022-07-29T16:20:59.499Z,99985.84
2022-07-29T16:23:28.052Z,99981.19
2022-07-29T16:26:00.237Z,99979.28
2022-07-29T16:28:29.616Z,99979.19
2022-07-29T16:30:58.079Z,99979.06
2022-07-29T16:33:26.472Z,99977.94
2022-07-29T16:35:54.887Z,99985.38
2022-07-29T16:38:23.173Z,99988.34
2022-07-29T16:40:51.918Z,99983.53
2022-07-29T16:43:21.655Z,99980.84
2022-07-29T16:45:51.049Z,99981.56
2022-07-29T16:48:19.275Z,99981.53
2022-07-29T16:50:47.880Z,99983.47
2022-07-29T16:53:18.931Z,99977.38
2022-07-29T16:55:47.596Z,99979.69
2022-07-29T16:58:16.121Z,99977.66
2022-07-29T17:00:45.970Z,99979.94
2022-07-29T17:03:14.549Z,99974.88
2022-07-29T17:05:53.679Z,99981.84
2022-07-29T17:08:22.971Z,99979.66
2022-07-29T17:10:51.497Z,99979.22
2022-07-29T17:13:20.216Z,99982.81
2022-07-29T17:15:49.974Z,99995.28
2022-07-29T17:18:19.945Z,99984.22
2022-07-29T17:20:48.311Z,99992.09
2022-07-29T17:23:16.657Z,99992.22
2022-07-29T17:25:44.987Z,99987.66
2022-07-29T17:28:13.265Z,99992.25
2022-07-29T17:30:41.657Z,100000.53
2022-07-29T17:33:11.277Z,99999.53
2022-07-29T17:35:57.034Z,99991.66
2022-07-29T17:38:25.375Z,100006.09
2022-07-29T17:40:53.738Z,100008.75
2022-07-29T17:43:22.058Z,100006.63
2022-07-29T17:45:50.902Z,100011.94
2022-07-29T17:48:23.239Z,99999.47
2022-07-29T17:50:53.174Z,100010.28
2022-07-29T17:53:21.968Z,100014.56
2022-07-29T17:55:50.367Z,100009.59
2022-07-29T17:58:18.907Z,100016.34
2022-07-29T18:00:47.565Z,100023.88
2022-07-29T18:03:21.407Z,100024.09
2022-07-29T18:05:50.829Z,100015.75
2022-07-29T18:08:19.594Z,100016.09
2022-07-29T18:10:48.781Z,100026.06
2022-07-29T18:13:17.780Z,100023.06
2022-07-29T18:15:47.506Z,100018.63
2022-07-29T18:18:18.281Z,100027.72
2022-07-29T18:20:48.717Z,100025.81
2022-07-29T18:23:20.481Z,100027.81
2022-07-29T18:25:49.008Z,100028.50
2022-07-29T18:28:19.009Z,100025.47
2022-07-29T18:30:47.991Z,100022.25
2022-07-29T18:33:21.663Z,100023.88
2022-07-29T18:36:10.810Z,100030.03
2022-07-29T18:38:41.202Z,100035.47
2022-07-29T18:41:09.836Z,100039.41
2022-07-29T18:43:45.597Z,100038.25
2022-07-29T18:46:19.634Z,100037.56
2022-07-29T18:48:48.334Z,100046.03
2022-07-29T18:51:18.383Z,100040.91
2022-07-29T18:53:46.835Z,100036.28
2022-07-29T18:56:20.620Z,100036.16
2022-07-29T18:58:49.157Z,100039.75
2022-07-29T19:01:17.909Z,100046.03
2022-07-29T19:03:56.833Z,100042.19
2022-07-29T19:06:29.621Z,100046.00
2022-07-29T19:08:58.212Z,100045.22
2022-07-29T19:11:26.559Z,100043.69
2022-07-29T19:13:55.111Z,100046.56
2022-07-29T19:16:24.113Z,100048.56
2022-07-29T19:18:53.008Z,100052.66
2022-07-29T19:21:22.452Z,100049.72
2022-07-29T19:24:01.390Z,100051.81
2022-07-29T19:26:39.283Z,100058.44
2022-07-29T19:29:08.149Z,100048.69
2022-07-29T19:31:36.619Z,100052.97
2022-07-29T19:34:05.529Z,100056.34
2022-07-29T19:36:34.270Z,100053.91
2022-07-29T19:39:05.089Z,100062.09
2022-07-29T19:41:33.730Z,100065.38
2022-07-29T19:44:02.159Z,100074.06
2022-07-29T19:46:31.067Z,100074.41
2022-07-29T19:48:59.525Z,100074.00
2022-07-29T19:51:28.510Z,100077.56
2022-07-29T19:53:57.161Z,100083.88
2022-07-29T19:56:29.820Z,100084.41
2022-07-29T19:58:58.980Z,100086.34
2022-07-29T20:01:27.813Z,100091.47
2022-07-29T20:03:56.920Z,100094.38
2022-07-29T20:06:27.323Z,100096.31
2022-07-29T20:08:58.771Z,100100.28
2022-07-29T20:11:29.738Z,100102.94
2022-07-29T20:13:58.242Z,100101.75
2022-07-29T20:16:27.218Z,100104.56
2022-07-29T20:18:55.589Z,100097.69
2022-07-29T20:21:25.448Z,100106.00
2022-07-29T20:23:54.022Z,100099.16
2022-07-29T20:26:22.442Z,100105.38
2022-07-29T20:28:52.192Z,100111.25
2022-07-29T20:31:20.996Z,100106.19
2022-07-29T20:33:49.847Z,100105.84
2022-07-29T20:36:18.477Z,100114.03
2022-07-29T20:38:46.789Z,100120.81
2022-07-29T20:41:15.746Z,100117.53
2022-07-29T20:43:45.495Z,100122.41
2022-07-29T20:46:15.292Z,100121.97
2022-07-29T20:48:44.034Z,100129.09
2022-07-29T20:51:12.764Z,100129.19
2022-07-29T20:53:41.725Z,100135.81
2022-07-29T20:56:12.555Z,100124.56
2022-07-29T20:58:42.252Z,100133.56
2022-07-29T21:01:11.351Z,100133.72
2022-07-29T21:03:41.100Z,100123.59
2022-07-29T21:06:09.550Z,100144.59
2022-07-29T21:08:38.090Z,100148.72
2022-07-29T21:11:06.639Z,100144.22
2022-07-29T21:13:39.839Z,100145.59
2022-07-29T21:16:14.894Z,100153.44
2022-07-29T21:18:46.543Z,100157.19
2022-07-29T21:21:16.964Z,100162.75
2022-07-29T21:23:46.002Z,100164.22
2022-07-29T21:26:16.055Z,100166.03
2022-07-29T21:28:43.796Z,100167.09
2022-07-29T21:31:14.521Z,100166.28
2022-07-29T21:33:47.036Z,100169.34
2022-07-29T21:36:46.748Z,100168.53
2022-07-29T21:39:07.808Z,100172.19
2022-07-29T21:41:36.346Z,100170.34
2022-07-29T21:44:05.109Z,100172.59
2022-07-29T21:46:33.461Z,100178.09
2022-07-29T21:49:03.208Z,100176.50
2022-07-29T21:51:31.553Z,100176.31
2022-07-29T21:53:59.899Z,100176.72
2022-07-29T21:56:28.196Z,100173.81
2022-07-29T21:58:57.570Z,100172.00
2022-07-29T22:01:26.066Z,100177.88
2022-07-29T22:03:54.549Z,100164.19
2022-07-29T22:06:25.380Z,100176.84
2022-07-29T22:08:53.908Z,100168.88
2022-07-29T22:11:23.640Z,100169.09
2022-07-29T22:13:52.102Z,100164.63
2022-07-29T22:16:20.676Z,100174.41
2022-07-29T22:18:49.309Z,100159.75
2022-07-29T22:21:17.681Z,100155.47
2022-07-29T22:23:47.514Z,100159.56
2022-07-29T22:26:15.962Z,100165.44
2022-07-29T22:28:44.334Z,100165.47
2022-07-29T22:31:12.812Z,100158.50
2022-07-29T22:33:41.700Z,100159.34
2022-07-29T22:36:10.434Z,100156.69
2022-07-29T22:38:38.818Z,100159.34
2022-07-29T22:41:09.839Z,100158.59
2022-07-29T22:43:43.951Z,100160.22
2022-07-29T22:46:12.368Z,100166.16
2022-07-29T22:48:40.697Z,100155.91
2022-07-29T22:51:09.203Z,100163.44
2022-07-29T22:53:38.742Z,100161.78
2022-07-29T22:56:07.176Z,100165.09
2022-07-29T22:58:37.609Z,100163.56
2022-07-29T23:01:06.197Z,100157.47
2022-07-29T23:03:35.204Z,100150.13
2022-07-29T23:06:04.176Z,100158.53
2022-07-29T23:08:33.428Z,100153.69
2022-07-29T23:11:01.784Z,100155.88
2022-07-29T23:13:30.566Z,100150.38
2022-07-29T23:16:01.149Z,100155.66
2022-07-29T23:18:29.924Z,100156.69
2022-07-29T23:20:58.559Z,100151.44
2022-07-29T23:23:27.213Z,100153.84
2022-07-29T23:26:00.757Z,100147.19
2022-07-29T23:28:29.402Z,100148.22
2022-07-29T23:30:59.673Z,100136.09
2022-07-29T23:33:28.746Z,100140.88
2022-07-29T23:35:57.105Z,100139.00
2022-07-29T23:38:25.657Z,100132.56
2022-07-29T23:40:53.871Z,100134.84
2022-07-29T23:43:22.551Z,100128.97
2022-07-29T23:45:51.196Z,100123.34
2022-07-29T23:48:24.606Z,100126.50
2022-07-29T23:50:53.425Z,100121.34
2022-07-29T23:53:24.478Z,100127.44
2022-07-29T23:55:53.209Z,100125.78
2022-07-29T23:58:22.113Z,100129.41
